AirNav   Air Wisconsin pilot careers
 
 861 users online  

5HO Hope Airport
Hope, Alaska, USA

GOING TO HOPE?


FAA INFORMATION EFFECTIVE 08 NOVEMBER 2018

Location

FAA Identifier: 5HO
Lat/Long: 60-54-26.1100N / 149-37-22.1200W
60-54.435167N / 149-37.368667W
60.9072528 / -149.6228111
(estimated)
Elevation: 193.9 ft. / 59 m (estimated)
Variation: 25E (1985)
From city: 1 mile SE of HOPE, AK
Time zone: UTC -9 (UTC -8 during Daylight Saving Time)
Zip code: 99605

Airport Operations

Airport use: Open to the public
Activation date: 11/1950
Control tower: no
ARTCC: ANCHORAGE CENTER
FSS: KENAI FLIGHT SERVICE STATION [907-283-8469]
NOTAMs facility: ENA (NOTAM-D service available)
Attendance: UNATNDD
Wind indicator: yes, WINDSOCKS LOCATED AT BOTH ENDS OF RWY 17/35.
Segmented circle: yes

Airport Communications

CTAF: 122.9
WX ASOS at LHD (19 nm NW): PHONE 907-245-1618
WX ASOS at ANC (19 nm NW): 118.4 (907-271-5278)
WX ASOS at MRI (19 nm N): PHONE 907-271-5277

Nearby radio navigation aids

VOR radial/distance  VOR name  Freq  Var
TEDr130/18.5ANCHORAGE VOR/DME113.1518E

 
NDB name  Hdg/Dist  Freq  Var  ID
CAMPBELL LAKE126/20.133816ECMQ -.-. -- --.-

Airport Services

Airframe service: NONE
Powerplant service: NONE
Bottled oxygen: NONE
Bulk oxygen: NONE

Runway Information

Runway 17/35

Dimensions: 2040 x 60 ft. / 622 x 18 m
Surface: gravel, in fair condition
Runway edge markings: NSTD MKGS RYS 17 & 35; RWY THLDS MKD WITH PLASTIC MARKERS.
Gradient: S.
RUNWAY 17  RUNWAY 35
Latitude: 60-54.601333N60-54.269000N
Longitude: 149-37.327333W149-37.410000W
Elevation: 159.3 ft.193.9 ft.
Gradient: 1.5%1.7% UP
Traffic pattern: leftleft
Markings: NSTDNSTD
Obstructions: 56 ft. trees, 110 ft. left and right of centerline51 ft. trees, 110 ft. left and right of centerline

Airport Ownership and Management from official FAA records

Ownership: Publicly-owned
Owner: ALASKA DOT&PF CENTRAL REGION
P.O. BOX 196900
ANCHORAGE, AK 99519-6900
Phone 907-338-1466
Manager: DREW MOTSINGER
STATE OF AK - DOTPF, 35200 HOPE HWY
HOPE, AK 99605
Phone 907-269-5672
FOREMAN FROM SILVERTIP STATION.

Airport Operational Statistics

Aircraft based on the field: 8
Single engine airplanes: 8
    
Aircraft operations: avg 40/month *
58% local general aviation
31% transient general aviation
10% air taxi
* for 12-month period ending 31 December 2017

Additional Remarks

BE ALERT RWY CONDITION NOT MONITORED. RECOMMEND VISUAL INSPECTION PRIOR TO LANDING.
SAFETY AREA NORTH END CLEARED 470 FT, SAFETY AREA SOUTH END CLEARED 580 FT.

Instrument Procedures

There are no published instrument procedures at 5HO.

Some nearby airports with instrument procedures:

PANC - Ted Stevens Anchorage International Airport (19 nm NW)
PAMR - Merrill Field Airport (19 nm N)
PAED - Elmendorf Air Force Base (21 nm N)
PAFR - Bryant Army Airfield Heliport (22 nm N)
PAGQ - Big Lake Airport (38 nm N)
 
Loc | Ops | Rwys | IFR | FBO | Links
Com | Nav | Svcs | Stats | Notes

Crowley
 
Area around 5HO (Hope Airport)
 
Road maps at: MapQuest Bing Google
 
Aerial photo
WARNING: Photo may not be current or correct
Aerial photo of 5HO (Hope Airport)
Photo by Jonathan Tack
Photo taken 07-Aug-2006

Do you have a better or more recent aerial photo of Hope Airport that you would like to share? If so, please send us your photo.

 
Sectional chart

 
Airport distance calculator
Flying to Hope Airport? Find the distance to fly.

From to 5HO

Sunrise and sunset
Times for 18-Nov-2018
 Local
(UTC-9)
 Zulu
(UTC)
Morning civil twilight08:2017:20
Sunrise09:1218:12
Sunset16:1601:16
Evening civil twilight17:0802:08

Current date and time
Zulu (UTC)  19-Nov-2018 01:16:08
Local (UTC-9)  18-Nov-2018 16:16:08
 
METAR
PANC 
19nm NW 
190053Z 00000KT 10SM BKN004 BKN012 OVC080 03/02 A2946 RMK AO2 SLP977 T00330022 $
PALH 
19nm NW 
190053Z 00000KT 10SM OVC005 02/02 A2947 RMK AO2 SLP979 T00220017
PAMR 
20nm N 
190053Z 35005KT 2SM BR BKN004 OVC100 03/02 A2946 RMK AO2 SLP976 T00280017
PAED 
21nm N 
190056Z 00000KT 1/4SM R06/2600V2800FT FG OVC002 02/02 A2945 RMK AO2A SLP970 T00160016 $
PAFR 
22nm N 
190058Z AUTO 00000KT 1/2SM R17/3500FT FG VV002 01/01 A2943 RMK AO2 SLP975 T00080006 $
PATO 
24nm E 
190053Z AUTO 12012G32KT 7SM -RA BKN028 OVC034 08/04 A2948 RMK AO2 PK WND 14039/0028 SLP984 P0003 T00830044 TSNO $
PABV 
31nm N 
190056Z AUTO 22005KT 10SM BKN003 OVC110 02/02 A2947 RMK AO2 SLP987 T00220017 FZRANO
TAF
PANC 
19nm NW 
182122Z 1821/1924 35006KT P6SM -RA OVC005 FM190600 VRB05KT P6SM VCSH FEW005 OVC060
PAED 
21nm N 
182050Z 1820/2001 35006KT 6000 -SHRA BR BKN004 BKN040 610409 520009 QNH2945INS TEMPO 1822/1900 0800 FG BKN002 BKN040 610039 610955 BECMG 1900/1901 35006KT 9000 -SHRA SCT005 BKN040 610409 520009 QNH2932INS BECMG 1909/1910 04006KT 9999 VCSH FEW005 BKN080 610806 QNH2929INS TEMPO 1909/1918 9000 -DZ BKN040 610409 BECMG 1918/1919 07006KT 9000 -SHRA SCT040 BKN070 610708 QNH2932INS TX04/1823Z TN00/1917Z
NOTAMs
Click for the latest NOTAMs
NOTAMs are issued by the DoD/FAA and will open in a separate window not controlled by AirNav.

 

 
 

Would you like to see your business listed on this page?

 If your business provides an interesting product or service to pilots, flight crews, aircraft, or users of the Hope Airport, you should consider listing it here.  To start the listing process, click on the button below
 
Add a business
 

Other Pages about Hope Airport

Update a link
 
Copyright © AirNav, LLC. All rights reserved. Privacy Policy  Contact